Time;durP1;ratioP1;P1;durP2;ratioP2;P2;SDS_P1;SDS_P2;PMS_P1;PMS_P2;Temp;Humidity;BMP_temperature;BMP_pressure;BME280_temperature;BME280_humidity;BME280_pressure;Samples;Min_cycle;Max_cycle;Signal;HPM_P1;HPM_P2
2021/06/05 00:00:20;;;;;;;7.05;3.80;;;;;;;;;;6194178;23;20163;-90
2021/06/05 00:03:25;;;;;;;7.15;3.42;;;;;;;;;;6195285;23;20172;-90
2021/06/05 00:06:29;;;;;;;5.68;3.17;;;;;;;;;;6195978;23;20478;-90
2021/06/05 00:09:34;;;;;;;8.63;3.70;;;;;;;;;;6196514;23;20241;-91
2021/06/05 00:12:40;;;;;;;12.23;3.90;;;;;;;;;;6194286;23;20558;-90
2021/06/05 00:15:45;;;;;;;6.28;3.67;;;;;;;;;;6195400;23;20192;-88
2021/06/05 00:18:50;;;;;;;8.60;3.70;;;;;;;;;;6193978;23;20171;-91
2021/06/05 00:21:55;;;;;;;7.65;3.83;;;;;;;;;;6194869;23;20179;-90
2021/06/05 00:24:59;;;;;;;6.70;3.33;;;;;;;;;;6194554;23;20244;-91
2021/06/05 00:28:06;;;;;;;7.72;3.70;;;;;;;;;;6194460;23;20241;-91
2021/06/05 00:31:10;;;;;;;6.07;3.80;;;;;;;;;;6196927;23;20217;-90
2021/06/05 00:34:16;;;;;;;11.45;4.43;;;;;;;;;;6194504;23;20265;-90
2021/06/05 00:37:20;;;;;;;8.57;4.05;;;;;;;;;;6196173;23;20483;-91
2021/06/05 00:40:27;;;;;;;9.00;4.07;;;;;;;;;;6195918;23;20196;-89
2021/06/05 00:43:36;;;;;;;6.95;3.90;;;;;;;;;;6196624;23;20180;-91
2021/06/05 00:46:41;;;;;;;6.15;3.80;;;;;;;;;;6195991;23;20192;-89
2021/06/05 00:49:45;;;;;;;7.05;4.13;;;;;;;;;;6197106;23;20219;-90
2021/06/05 00:52:50;;;;;;;6.68;4.30;;;;;;;;;;6196773;23;20215;-91
2021/06/05 00:55:59;;;;;;;12.57;4.60;;;;;;;;;;6197869;23;20279;-90
2021/06/05 00:59:06;;;;;;;12.20;4.60;;;;;;;;;;6197783;23;20171;-90
2021/06/05 01:02:15;;;;;;;10.93;4.78;;;;;;;;;;6196909;23;20175;-90
2021/06/05 01:05:21;;;;;;;8.20;4.25;;;;;;;;;;6197128;23;20297;-91
2021/06/05 01:08:29;;;;;;;6.15;4.20;;;;;;;;;;6198194;23;20168;-90
2021/06/05 01:11:39;;;;;;;9.30;4.53;;;;;;;;;;6198226;23;20483;-89
2021/06/05 01:14:48;;;;;;;7.93;4.90;;;;;;;;;;6197579;23;20195;-90
2021/06/05 01:17:55;;;;;;;8.35;4.88;;;;;;;;;;6198630;23;20204;-91
2021/06/05 01:21:14;;;;;;;13.57;4.57;;;;;;;;;;6195659;23;20172;-89
2021/06/05 01:24:38;;;;;;;13.52;4.90;;;;;;;;;;6197850;23;20153;-90
2021/06/05 01:27:46;;;;;;;12.77;4.65;;;;;;;;;;6178895;23;20211;-89
2021/06/05 01:30:54;;;;;;;11.98;4.82;;;;;;;;;;6195657;23;20172;-90
2021/06/05 01:34:01;;;;;;;8.20;4.57;;;;;;;;;;6195330;23;20192;-91
2021/06/05 01:37:07;;;;;;;10.55;4.93;;;;;;;;;;6195554;23;20163;-89
2021/06/05 01:40:14;;;;;;;8.20;5.07;;;;;;;;;;6195876;23;20599;-91
2021/06/05 01:43:23;;;;;;;9.07;4.90;;;;;;;;;;6194899;23;20483;-92
2021/06/05 01:46:32;;;;;;;10.77;5.63;;;;;;;;;;6196454;23;20180;-91
2021/06/05 01:49:36;;;;;;;9.73;4.68;;;;;;;;;;6178286;23;20167;-91
2021/06/05 01:52:42;;;;;;;8.88;4.93;;;;;;;;;;6196650;23;20179;-91
2021/06/05 01:55:51;;;;;;;10.18;5.28;;;;;;;;;;6195814;23;20276;-90
2021/06/05 01:58:58;;;;;;;14.38;6.20;;;;;;;;;;6178560;23;20173;-91
2021/06/05 02:02:09;;;;;;;12.32;5.97;;;;;;;;;;6195071;23;20172;-91
2021/06/05 02:05:15;;;;;;;12.23;5.35;;;;;;;;;;6176988;23;20236;-91
2021/06/05 02:08:22;;;;;;;12.55;5.65;;;;;;;;;;6178159;23;20336;-91
2021/06/05 02:11:28;;;;;;;17.27;6.53;;;;;;;;;;6194448;23;20167;-91
2021/06/05 02:14:38;;;;;;;16.33;6.72;;;;;;;;;;6195061;23;20191;-91
2021/06/05 02:17:43;;;;;;;17.98;6.70;;;;;;;;;;6195733;23;20215;-91
2021/06/05 02:20:53;;;;;;;12.93;6.88;;;;;;;;;;6195094;23;20200;-91
2021/06/05 02:24:00;;;;;;;13.55;5.80;;;;;;;;;;6195920;23;20235;-91
2021/06/05 02:27:05;;;;;;;14.20;6.82;;;;;;;;;;6196493;23;20172;-91
2021/06/05 02:30:19;;;;;;;17.55;7.65;;;;;;;;;;6198051;23;20183;-92
2021/06/05 02:33:25;;;;;;;19.77;8.23;;;;;;;;;;6197804;23;20164;-92
2021/06/05 02:36:31;;;;;;;17.33;6.90;;;;;;;;;;6195124;23;20232;-90
2021/06/05 02:39:36;;;;;;;14.70;6.60;;;;;;;;;;6194065;23;20171;-90
2021/06/05 02:42:45;;;;;;;11.38;6.63;;;;;;;;;;6194280;23;20221;-91
2021/06/05 02:45:54;;;;;;;16.10;6.05;;;;;;;;;;6178591;23;20167;-91
2021/06/05 02:49:04;;;;;;;13.25;5.63;;;;;;;;;;6176621;23;20211;-91
2021/06/05 02:52:32;;;;;;;16.05;6.50;;;;;;;;;;6177116;23;20168;-91
2021/06/05 02:55:46;;;;;;;12.93;6.70;;;;;;;;;;6194030;23;20215;-91
2021/06/05 02:58:52;;;;;;;15.90;6.97;;;;;;;;;;6194034;23;20222;-91
2021/06/05 03:02:02;;;;;;;17.08;7.43;;;;;;;;;;6194844;23;20191;-91
2021/06/05 03:05:09;;;;;;;12.13;6.93;;;;;;;;;;6195867;23;20164;-92
2021/06/05 03:08:15;;;;;;;14.02;6.32;;;;;;;;;;6193751;23;20542;-92
2021/06/05 03:11:21;;;;;;;16.17;6.97;;;;;;;;;;6193454;23;20235;-91
2021/06/05 03:14:29;;;;;;;15.60;7.10;;;;;;;;;;6194617;23;20269;-90
2021/06/05 03:17:36;;;;;;;14.63;6.70;;;;;;;;;;6193452;23;20654;-90
2021/06/05 03:20:43;;;;;;;11.45;6.40;;;;;;;;;;6193928;23;20195;-92
2021/06/05 03:23:49;;;;;;;14.18;6.10;;;;;;;;;;6193418;23;20259;-91
2021/06/05 03:27:03;;;;;;;12.32;6.55;;;;;;;;;;6176255;23;20207;-90
2021/06/05 03:30:10;;;;;;;12.65;6.25;;;;;;;;;;6195313;23;20219;-91
2021/06/05 03:33:18;;;;;;;14.85;6.68;;;;;;;;;;6193914;23;20493;-89
2021/06/05 03:36:23;;;;;;;11.00;6.38;;;;;;;;;;6195262;23;20194;-91
2021/06/05 03:39:29;;;;;;;15.13;7.22;;;;;;;;;;6194732;23;20299;-91
2021/06/05 03:42:37;;;;;;;10.88;6.57;;;;;;;;;;6193038;23;20188;-89
2021/06/05 03:45:42;;;;;;;14.20;7.25;;;;;;;;;;6194730;23;20225;-91
2021/06/05 03:48:49;;;;;;;10.98;6.40;;;;;;;;;;6177437;23;20187;-92
2021/06/05 03:51:54;;;;;;;26.20;6.25;;;;;;;;;;6176265;23;20199;-90
2021/06/05 03:55:01;;;;;;;12.98;6.40;;;;;;;;;;6192270;23;20513;-90
2021/06/05 03:58:06;;;;;;;11.80;6.07;;;;;;;;;;6176177;23;20220;-91
2021/06/05 04:01:14;;;;;;;10.38;5.93;;;;;;;;;;6177432;23;20175;-92
2021/06/05 04:04:22;;;;;;;10.63;6.28;;;;;;;;;;6178241;23;20164;-91
2021/06/05 04:07:26;;;;;;;12.90;6.50;;;;;;;;;;6196669;23;20172;-91
2021/06/05 04:10:31;;;;;;;12.13;5.68;;;;;;;;;;6177250;23;20184;-90
2021/06/05 04:13:36;;;;;;;13.13;6.20;;;;;;;;;;6194925;23;20171;-90
2021/06/05 04:16:40;;;;;;;14.10;6.63;;;;;;;;;;6179263;23;20191;-90
2021/06/05 04:19:46;;;;;;;15.15;8.48;;;;;;;;;;6192286;23;20172;-90
2021/06/05 04:22:51;;;;;;;15.07;7.72;;;;;;;;;;6180197;23;20172;-91
2021/06/05 04:25:56;;;;;;;12.00;7.20;;;;;;;;;;6195499;23;20619;-91
2021/06/05 04:29:01;;;;;;;11.23;6.43;;;;;;;;;;6196140;23;20175;-90
2021/06/05 04:32:07;;;;;;;15.10;6.85;;;;;;;;;;6195819;23;20601;-91
2021/06/05 04:35:13;;;;;;;13.70;6.22;;;;;;;;;;6198129;23;20268;-90
2021/06/05 04:38:19;;;;;;;11.25;6.35;;;;;;;;;;6195864;23;20167;-91
2021/06/05 04:41:24;;;;;;;13.70;6.53;;;;;;;;;;6178368;23;20223;-90
2021/06/05 04:44:30;;;;;;;10.25;6.05;;;;;;;;;;6179456;23;20167;-91
2021/06/05 04:47:35;;;;;;;11.52;5.97;;;;;;;;;;6196288;23;20196;-90
2021/06/05 04:50:43;;;;;;;9.60;6.20;;;;;;;;;;6195686;23;20167;-90
2021/06/05 04:53:47;;;;;;;13.23;6.65;;;;;;;;;;6197092;23;20501;-91
2021/06/05 04:56:52;;;;;;;12.23;6.55;;;;;;;;;;6201380;23;20187;-92
2021/06/05 04:59:56;;;;;;;11.68;6.10;;;;;;;;;;6195689;23;20159;-90
2021/06/05 05:03:01;;;;;;;16.25;6.50;;;;;;;;;;6195672;23;20176;-89
2021/06/05 05:06:07;;;;;;;11.98;6.72;;;;;;;;;;6194450;23;20220;-89
2021/06/05 05:09:13;;;;;;;10.55;6.80;;;;;;;;;;6195814;23;20291;-90
2021/06/05 05:12:18;;;;;;;22.33;6.78;;;;;;;;;;6195618;23;20175;-92
2021/06/05 05:15:23;;;;;;;13.57;6.72;;;;;;;;;;6195759;23;20200;-89
2021/06/05 05:18:28;;;;;;;17.20;7.68;;;;;;;;;;6193597;23;20221;-90
2021/06/05 05:21:36;;;;;;;13.10;6.82;;;;;;;;;;6194734;23;20179;-90
2021/06/05 05:24:40;;;;;;;10.25;6.75;;;;;;;;;;6194571;23;20835;-90
2021/06/05 05:27:45;;;;;;;15.23;6.60;;;;;;;;;;6196900;23;20164;-91
2021/06/05 05:30:52;;;;;;;11.63;6.47;;;;;;;;;;6195623;23;20267;-90
2021/06/05 05:33:57;;;;;;;14.38;7.30;;;;;;;;;;6196697;23;20234;-90
2021/06/05 05:37:03;;;;;;;11.45;6.20;;;;;;;;;;6196628;23;20208;-91
2021/06/05 05:40:10;;;;;;;14.75;6.63;;;;;;;;;;6194951;23;20186;-92
2021/06/05 05:43:14;;;;;;;9.43;5.90;;;;;;;;;;6193053;23;20630;-92
2021/06/05 05:46:19;;;;;;;11.95;6.10;;;;;;;;;;6194766;23;20171;-90
2021/06/05 05:49:25;;;;;;;8.13;5.68;;;;;;;;;;6194430;23;20192;-91
2021/06/05 05:52:31;;;;;;;10.90;5.50;;;;;;;;;;6194877;23;20172;-90
2021/06/05 05:55:36;;;;;;;8.75;6.13;;;;;;;;;;6195264;23;20203;-91
2021/06/05 05:58:43;;;;;;;9.23;5.40;;;;;;;;;;6194202;23;20549;-90
2021/06/05 06:01:48;;;;;;;10.40;5.85;;;;;;;;;;6195571;23;20203;-90
2021/06/05 06:04:52;;;;;;;10.45;5.75;;;;;;;;;;6195714;23;20180;-91
2021/06/05 06:07:58;;;;;;;10.63;5.97;;;;;;;;;;6195513;23;20664;-90
2021/06/05 06:11:03;;;;;;;8.43;5.53;;;;;;;;;;6179057;23;20219;-91
2021/06/05 06:14:08;;;;;;;8.40;5.50;;;;;;;;;;6195621;23;20647;-91
2021/06/05 06:17:13;;;;;;;11.60;5.78;;;;;;;;;;6197246;23;20171;-90
2021/06/05 06:20:19;;;;;;;8.95;5.53;;;;;;;;;;6196103;23;20167;-91
2021/06/05 06:23:26;;;;;;;14.65;6.25;;;;;;;;;;6193105;23;20671;-91
2021/06/05 06:26:31;;;;;;;7.32;5.38;;;;;;;;;;6197558;23;20183;-91
2021/06/05 06:29:36;;;;;;;8.38;5.38;;;;;;;;;;6197167;23;20655;-91
2021/06/05 06:32:40;;;;;;;11.80;5.55;;;;;;;;;;6196491;23;20175;-91
2021/06/05 06:35:45;;;;;;;11.95;5.97;;;;;;;;;;6195490;23;20195;-91
2021/06/05 06:38:51;;;;;;;10.02;6.32;;;;;;;;;;6178683;23;20207;-90
2021/06/05 06:41:56;;;;;;;11.02;6.38;;;;;;;;;;6194996;23;20215;-91
2021/06/05 06:45:02;;;;;;;12.43;6.55;;;;;;;;;;6196332;23;20168;-91
2021/06/05 06:48:07;;;;;;;9.50;6.10;;;;;;;;;;6195768;23;20237;-91
2021/06/05 06:51:11;;;;;;;12.18;6.70;;;;;;;;;;6193199;23;20168;-91
2021/06/05 06:54:18;;;;;;;9.07;6.32;;;;;;;;;;6177083;23;20175;-90
2021/06/05 06:57:23;;;;;;;11.98;6.95;;;;;;;;;;6206073;23;20195;-91
2021/06/05 07:00:29;;;;;;;11.63;6.68;;;;;;;;;;6194310;23;20175;-91
2021/06/05 07:03:35;;;;;;;9.65;6.80;;;;;;;;;;6194966;23;20168;-89
2021/06/05 07:06:40;;;;;;;13.10;7.65;;;;;;;;;;6197278;23;20244;-90
2021/06/05 07:09:46;;;;;;;12.27;6.47;;;;;;;;;;6195946;23;20244;-90
2021/06/05 07:12:51;;;;;;;17.33;8.25;;;;;;;;;;6194211;23;20249;-91
2021/06/05 07:15:58;;;;;;;12.65;6.78;;;;;;;;;;6196488;23;20199;-91
2021/06/05 07:19:03;;;;;;;11.52;7.38;;;;;;;;;;6197045;23;20180;-92
2021/06/05 07:22:08;;;;;;;10.70;7.18;;;;;;;;;;6195241;23;20199;-91
2021/06/05 07:25:14;;;;;;;10.35;6.93;;;;;;;;;;6196919;23;20171;-91
2021/06/05 07:28:22;;;;;;;12.02;7.80;;;;;;;;;;6177946;23;20171;-92
2021/06/05 07:31:28;;;;;;;11.60;6.97;;;;;;;;;;6195746;23;20219;-91
2021/06/05 07:34:34;;;;;;;12.50;7.22;;;;;;;;;;6211975;23;20180;-92
2021/06/05 07:37:38;;;;;;;9.75;6.85;;;;;;;;;;6196651;23;20654;-92
2021/06/05 07:40:44;;;;;;;11.98;6.88;;;;;;;;;;6196280;23;20179;-91
2021/06/05 07:43:51;;;;;;;12.27;7.38;;;;;;;;;;6216080;23;20215;-91
2021/06/05 07:46:57;;;;;;;12.52;7.13;;;;;;;;;;6195198;23;20167;-92
2021/06/05 07:50:02;;;;;;;13.45;8.43;;;;;;;;;;6196127;23;20203;-91
2021/06/05 07:53:07;;;;;;;11.77;8.25;;;;;;;;;;6195309;23;20179;-91
2021/06/05 07:56:13;;;;;;;12.85;7.45;;;;;;;;;;6193896;23;20219;-90
2021/06/05 07:59:18;;;;;;;9.43;7.10;;;;;;;;;;6176209;23;20175;-93
2021/06/05 08:02:23;;;;;;;12.48;6.30;;;;;;;;;;6193378;23;20215;-91
2021/06/05 08:05:28;;;;;;;9.50;6.80;;;;;;;;;;6196895;23;20171;-91
2021/06/05 08:08:33;;;;;;;10.18;6.70;;;;;;;;;;6194610;23;20853;-90
2021/06/05 08:11:39;;;;;;;11.25;7.05;;;;;;;;;;6195405;23;20176;-90
2021/06/05 08:14:43;;;;;;;9.23;6.95;;;;;;;;;;6195283;23;20176;-91
2021/06/05 08:17:48;;;;;;;9.07;6.95;;;;;;;;;;6195906;23;20224;-89
2021/06/05 08:20:55;;;;;;;12.95;7.75;;;;;;;;;;6193630;23;20223;-91
2021/06/05 08:24:00;;;;;;;10.43;7.63;;;;;;;;;;6195632;23;20176;-90
2021/06/05 08:27:07;;;;;;;12.43;7.72;;;;;;;;;;6176059;23;20168;-91
2021/06/05 08:30:16;;;;;;;10.15;7.53;;;;;;;;;;6193624;23;20191;-92
2021/06/05 08:33:22;;;;;;;11.73;7.43;;;;;;;;;;6196657;23;20497;-91
2021/06/05 08:36:28;;;;;;;11.48;7.45;;;;;;;;;;6177698;23;20661;-90
2021/06/05 08:39:33;;;;;;;12.80;6.95;;;;;;;;;;6177730;23;20171;-91
2021/06/05 08:42:47;;;;;;;10.73;6.88;;;;;;;;;;6195263;23;20219;-91
2021/06/05 08:45:52;;;;;;;12.25;7.20;;;;;;;;;;6195190;23;20204;-90
2021/06/05 08:48:58;;;;;;;11.88;7.13;;;;;;;;;;6176035;23;20295;-90
2021/06/05 08:52:06;;;;;;;12.55;7.63;;;;;;;;;;6194137;23;20180;-91
2021/06/05 08:55:13;;;;;;;13.15;7.40;;;;;;;;;;6195603;23;20239;-92
2021/06/05 08:58:28;;;;;;;11.82;7.38;;;;;;;;;;6197109;23;20475;-91
2021/06/05 09:01:36;;;;;;;11.52;7.15;;;;;;;;;;6196937;23;20172;-91
2021/06/05 09:04:43;;;;;;;11.13;7.07;;;;;;;;;;6195976;23;20635;-90
2021/06/05 09:07:48;;;;;;;10.75;7.28;;;;;;;;;;6194626;23;20163;-90
2021/06/05 09:10:54;;;;;;;13.25;7.97;;;;;;;;;;6195760;23;20490;-92
2021/06/05 09:14:01;;;;;;;8.95;7.05;;;;;;;;;;6201526;23;20172;-92
2021/06/05 09:17:15;;;;;;;9.85;6.90;;;;;;;;;;6196474;23;20259;-91
2021/06/05 09:20:25;;;;;;;8.32;5.95;;;;;;;;;;6179371;23;20242;-91
2021/06/05 09:23:32;;;;;;;11.63;7.00;;;;;;;;;;6195215;23;20170;-91
2021/06/05 09:26:37;;;;;;;10.18;6.20;;;;;;;;;;6194526;23;20474;-92
2021/06/05 09:29:49;;;;;;;7.93;6.47;;;;;;;;;;6196176;23;20210;-90
2021/06/05 09:32:57;;;;;;;8.45;5.93;;;;;;;;;;6195956;23;20167;-90
2021/06/05 09:36:21;;;;;;;24.38;10.82;;;;;;;;;;6195935;23;20207;-91
2021/06/05 09:39:40;;;;;;;14.00;5.93;;;;;;;;;;6181665;23;20195;-90
2021/06/05 09:42:46;;;;;;;11.90;6.53;;;;;;;;;;6198466;23;20251;-90
2021/06/05 09:46:06;;;;;;;7.63;5.80;;;;;;;;;;6195090;23;20175;-92
2021/06/05 09:49:18;;;;;;;11.55;6.22;;;;;;;;;;6194720;23;20175;-92
2021/06/05 09:52:31;;;;;;;10.57;6.80;;;;;;;;;;6192437;23;20502;-92
2021/06/05 09:55:37;;;;;;;10.32;5.85;;;;;;;;;;6177702;23;20195;-91
2021/06/05 09:58:43;;;;;;;8.60;5.60;;;;;;;;;;6193701;23;20175;-90
2021/06/05 10:01:58;;;;;;;8.48;5.20;;;;;;;;;;6195182;23;20332;-90
2021/06/05 10:05:06;;;;;;;7.70;5.38;;;;;;;;;;6197265;23;20183;-90
2021/06/05 10:08:21;;;;;;;11.40;7.13;;;;;;;;;;6195628;23;20219;-91
2021/06/05 10:11:30;;;;;;;9.63;5.45;;;;;;;;;;6179445;23;20223;-91
2021/06/05 10:14:43;;;;;;;9.10;5.15;;;;;;;;;;6194781;23;20192;-91
2021/06/05 10:17:54;;;;;;;8.98;4.38;;;;;;;;;;6177709;23;20579;-90
2021/06/05 10:21:01;;;;;;;10.40;5.65;;;;;;;;;;6195800;23;20175;-91
2021/06/05 10:24:11;;;;;;;11.60;6.43;;;;;;;;;;6178020;23;20156;-90
2021/06/05 10:27:19;;;;;;;11.68;6.25;;;;;;;;;;6194775;23;20183;-91
2021/06/05 10:30:31;;;;;;;9.18;5.97;;;;;;;;;;6195002;23;20658;-92
2021/06/05 10:33:40;;;;;;;11.57;6.05;;;;;;;;;;6196419;23;20179;-91
2021/06/05 10:36:46;;;;;;;10.82;6.30;;;;;;;;;;6179502;23;20191;-90
2021/06/05 10:39:53;;;;;;;10.27;6.68;;;;;;;;;;6178311;23;20183;-89
2021/06/05 10:42:58;;;;;;;10.27;6.07;;;;;;;;;;6180084;23;20176;-92
2021/06/05 10:46:13;;;;;;;11.57;6.97;;;;;;;;;;6197812;23;20171;-91
2021/06/05 10:49:24;;;;;;;9.95;6.70;;;;;;;;;;6194856;23;20211;-90
2021/06/05 10:52:31;;;;;;;12.02;7.40;;;;;;;;;;6194589;23;20176;-93
2021/06/05 10:55:40;;;;;;;10.05;6.60;;;;;;;;;;6193412;23;20686;-91
2021/06/05 10:58:47;;;;;;;9.10;6.88;;;;;;;;;;6193376;23;20242;-89
2021/06/05 11:01:51;;;;;;;16.20;7.78;;;;;;;;;;6174882;23;20175;-92
2021/06/05 11:04:57;;;;;;;11.18;7.75;;;;;;;;;;6194949;23;20152;-90
2021/06/05 11:08:21;;;;;;;11.40;8.80;;;;;;;;;;6174924;23;20237;-90
2021/06/05 11:11:36;;;;;;;14.73;8.68;;;;;;;;;;6193341;23;20188;-90
2021/06/05 11:14:43;;;;;;;13.45;8.98;;;;;;;;;;6192700;23;20288;-89
2021/06/05 11:18:07;;;;;;;13.48;8.75;;;;;;;;;;6190837;23;20187;-91
2021/06/05 11:21:30;;;;;;;18.33;8.93;;;;;;;;;;6191691;23;20550;-91
2021/06/05 11:24:36;;;;;;;12.98;8.63;;;;;;;;;;6192645;23;20171;-90
2021/06/05 11:27:48;;;;;;;11.75;8.30;;;;;;;;;;6193411;23;20199;-91
2021/06/05 11:30:56;;;;;;;14.15;8.90;;;;;;;;;;6192505;23;20227;-92
2021/06/05 11:34:00;;;;;;;17.65;8.85;;;;;;;;;;6195256;23;20221;-90
2021/06/05 11:37:06;;;;;;;15.30;8.00;;;;;;;;;;6194295;23;20190;-90
2021/06/05 11:40:13;;;;;;;11.10;8.15;;;;;;;;;;6193841;23;20242;-90
2021/06/05 11:43:20;;;;;;;13.55;7.40;;;;;;;;;;6193423;23;20175;-91
2021/06/05 11:46:46;;;;;;;14.50;8.05;;;;;;;;;;6179302;23;20187;-90
2021/06/05 11:49:52;;;;;;;14.15;8.15;;;;;;;;;;6192570;23;20168;-91
2021/06/05 11:52:57;;;;;;;16.92;8.10;;;;;;;;;;6192883;23;20178;-90
2021/06/05 11:56:08;;;;;;;14.38;8.07;;;;;;;;;;6193336;23;20304;-90
2021/06/05 11:59:17;;;;;;;11.95;7.55;;;;;;;;;;6192161;23;20180;-90
2021/06/05 12:02:24;;;;;;;12.50;8.32;;;;;;;;;;6176926;23;20172;-91
2021/06/05 12:05:31;;;;;;;17.65;8.40;;;;;;;;;;6194681;23;20222;-90
2021/06/05 12:08:35;;;;;;;13.32;8.43;;;;;;;;;;6177756;23;20195;-91
2021/06/05 12:11:44;;;;;;;14.35;8.15;;;;;;;;;;6197510;23;20188;-92
2021/06/05 12:14:55;;;;;;;13.25;7.68;;;;;;;;;;6195766;23;20159;-90
2021/06/05 12:18:18;;;;;;;14.90;8.80;;;;;;;;;;6200859;23;20171;-91
2021/06/05 12:21:29;;;;;;;20.73;12.82;;;;;;;;;;6191379;23;20171;-92
2021/06/05 12:24:33;;;;;;;12.13;8.27;;;;;;;;;;6178889;23;20230;-93
2021/06/05 12:27:40;;;;;;;14.90;8.75;;;;;;;;;;6176460;23;20207;-91
2021/06/05 12:30:46;;;;;;;15.10;9.30;;;;;;;;;;6176318;23;20187;-91
2021/06/05 12:33:55;;;;;;;11.10;8.57;;;;;;;;;;6192915;23;20198;-91
2021/06/05 12:37:01;;;;;;;11.25;7.63;;;;;;;;;;6191620;23;20210;-93
2021/06/05 12:40:15;;;;;;;12.77;8.35;;;;;;;;;;6194911;23;20163;-93
2021/06/05 12:43:25;;;;;;;10.27;7.72;;;;;;;;;;6177853;23;20589;-92
2021/06/05 12:46:32;;;;;;;13.25;8.23;;;;;;;;;;6196926;23;20176;-92
2021/06/05 12:49:37;;;;;;;11.38;7.10;;;;;;;;;;6180291;23;20526;-93
2021/06/05 12:52:47;;;;;;;10.43;7.07;;;;;;;;;;6196712;23;20180;-93
2021/06/05 12:55:53;;;;;;;9.48;6.85;;;;;;;;;;6197258;23;20592;-92
2021/06/05 12:59:01;;;;;;;14.63;8.40;;;;;;;;;;6199102;23;20219;-93
2021/06/05 13:02:20;;;;;;;8.30;6.40;;;;;;;;;;6199173;23;20167;-89
2021/06/05 13:05:26;;;;;;;10.45;6.30;;;;;;;;;;6196177;23;20168;-92
2021/06/05 13:08:33;;;;;;;7.95;5.25;;;;;;;;;;6196939;23;20224;-90
2021/06/05 13:11:41;;;;;;;7.18;5.35;;;;;;;;;;6194256;23;20214;-92
2021/06/05 13:14:47;;;;;;;10.38;5.18;;;;;;;;;;6160264;23;20236;-91
2021/06/05 13:17:56;;;;;;;7.30;5.05;;;;;;;;;;6194216;23;20171;-89
2021/06/05 13:21:01;;;;;;;7.03;4.80;;;;;;;;;;6196345;23;20183;-90
2021/06/05 13:24:10;;;;;;;8.88;4.38;;;;;;;;;;6195439;23;20171;-92
2021/06/05 13:27:17;;;;;;;7.05;3.75;;;;;;;;;;6179082;23;20199;-91
2021/06/05 13:30:24;;;;;;;6.30;3.47;;;;;;;;;;6195170;23;20235;-92
2021/06/05 13:33:33;;;;;;;3.33;3.00;;;;;;;;;;6194521;23;20167;-91
2021/06/05 13:36:38;;;;;;;8.35;3.78;;;;;;;;;;6177503;23;20215;-89
2021/06/05 13:39:43;;;;;;;5.97;3.90;;;;;;;;;;6193543;23;20166;-90
2021/06/05 13:42:48;;;;;;;5.55;3.58;;;;;;;;;;6177193;23;20175;-91
2021/06/05 13:45:54;;;;;;;6.07;4.13;;;;;;;;;;6194177;23;20219;-91
2021/06/05 13:48:58;;;;;;;6.78;4.10;;;;;;;;;;6193854;23;20231;-92
2021/06/05 13:52:09;;;;;;;5.10;3.78;;;;;;;;;;6195638;23;20170;-92
2021/06/05 13:55:18;;;;;;;4.55;3.50;;;;;;;;;;6199720;23;20191;-91
2021/06/05 13:58:23;;;;;;;5.55;3.90;;;;;;;;;;6180829;23;20214;-91
2021/06/05 14:01:32;;;;;;;7.10;3.65;;;;;;;;;;6197270;23;20215;-94
2021/06/05 14:04:37;;;;;;;6.40;3.72;;;;;;;;;;6195857;23;20230;-91
2021/06/05 14:07:43;;;;;;;6.35;3.78;;;;;;;;;;6196451;23;20179;-91
2021/06/05 14:10:52;;;;;;;5.22;4.10;;;;;;;;;;6195437;23;20611;-91
2021/06/05 14:13:57;;;;;;;5.35;3.97;;;;;;;;;;6194919;23;20179;-90
2021/06/05 14:17:03;;;;;;;8.02;4.18;;;;;;;;;;6197433;23;20279;-90
2021/06/05 14:20:08;;;;;;;7.18;3.92;;;;;;;;;;6195901;23;20203;-90
2021/06/05 14:23:14;;;;;;;6.80;3.80;;;;;;;;;;6198352;23;20166;-90
2021/06/05 14:26:18;;;;;;;5.07;3.65;;;;;;;;;;6176958;23;20219;-91
2021/06/05 14:29:23;;;;;;;5.88;3.83;;;;;;;;;;6176289;23;20166;-90
2021/06/05 14:32:29;;;;;;;5.75;4.00;;;;;;;;;;6179828;23;20192;-91
2021/06/05 14:35:35;;;;;;;8.85;3.70;;;;;;;;;;6200705;23;20192;-91
2021/06/05 14:38:40;;;;;;;8.13;3.75;;;;;;;;;;6200126;23;20172;-90
2021/06/05 14:41:49;;;;;;;7.53;3.30;;;;;;;;;;6179626;23;20595;-89
2021/06/05 14:44:53;;;;;;;5.93;3.67;;;;;;;;;;6196556;23;20175;-91
2021/06/05 14:47:59;;;;;;;5.60;3.42;;;;;;;;;;6198327;23;20167;-91
2021/06/05 14:51:05;;;;;;;6.05;3.30;;;;;;;;;;6196668;23;20353;-91
2021/06/05 14:54:11;;;;;;;3.88;3.20;;;;;;;;;;6179514;23;20171;-88
2021/06/05 14:57:15;;;;;;;5.72;3.15;;;;;;;;;;6189233;23;20198;-90
2021/06/05 15:00:21;;;;;;;6.85;3.28;;;;;;;;;;6197581;23;20172;-88
2021/06/05 15:03:27;;;;;;;5.97;3.10;;;;;;;;;;6194340;23;20176;-91
2021/06/05 15:06:32;;;;;;;5.90;3.20;;;;;;;;;;6193488;23;20909;-91
2021/06/05 15:09:37;;;;;;;9.85;3.42;;;;;;;;;;6196069;23;20171;-89
2021/06/05 15:12:42;;;;;;;3.97;3.20;;;;;;;;;;6194765;23;20179;-89
2021/06/05 15:15:46;;;;;;;6.03;3.20;;;;;;;;;;6193836;23;20501;-91
2021/06/05 15:18:53;;;;;;;4.70;3.28;;;;;;;;;;6196148;23;20235;-89
2021/06/05 15:21:58;;;;;;;7.47;3.38;;;;;;;;;;6193518;23;20184;-90
2021/06/05 15:25:04;;;;;;;5.47;3.30;;;;;;;;;;6194874;23;20187;-90
2021/06/05 15:28:09;;;;;;;6.07;3.25;;;;;;;;;;6192838;23;20163;-91
2021/06/05 15:31:13;;;;;;;5.35;2.80;;;;;;;;;;6192772;23;20195;-91
2021/06/05 15:34:20;;;;;;;6.00;3.00;;;;;;;;;;6192629;23;20179;-91
2021/06/05 15:37:25;;;;;;;9.50;3.20;;;;;;;;;;6193327;23;20223;-90
2021/06/05 15:40:29;;;;;;;8.50;3.08;;;;;;;;;;6194522;23;20670;-91
2021/06/05 15:43:37;;;;;;;8.80;3.30;;;;;;;;;;6193517;23;20288;-90
2021/06/05 15:46:43;;;;;;;3.92;3.10;;;;;;;;;;6194940;23;20171;-91
2021/06/05 15:49:49;;;;;;;6.45;3.53;;;;;;;;;;6194638;23;20176;-92
2021/06/05 15:52:55;;;;;;;7.75;3.70;;;;;;;;;;6196928;23;20171;-90
2021/06/05 15:56:00;;;;;;;10.00;3.30;;;;;;;;;;6195774;23;20276;-87
2021/06/05 15:59:05;;;;;;;6.70;3.22;;;;;;;;;;6196367;23;20192;-89
2021/06/05 16:02:09;;;;;;;6.53;3.03;;;;;;;;;;6196199;23;20180;-90
2021/06/05 16:05:18;;;;;;;4.55;2.70;;;;;;;;;;6197607;23;20171;-89
2021/06/05 16:08:23;;;;;;;12.73;3.10;;;;;;;;;;6196146;23;20167;-92
2021/06/05 16:11:30;;;;;;;5.40;3.00;;;;;;;;;;6196812;23;20171;-90
2021/06/05 16:14:35;;;;;;;5.10;3.10;;;;;;;;;;6181173;23;20174;-90
2021/06/05 16:17:41;;;;;;;7.40;2.90;;;;;;;;;;6181415;23;20254;-91
2021/06/05 16:20:48;;;;;;;7.03;3.65;;;;;;;;;;6180181;23;20155;-90
2021/06/05 16:23:53;;;;;;;4.97;2.58;;;;;;;;;;6182644;23;20175;-90
2021/06/05 16:26:58;;;;;;;6.15;2.70;;;;;;;;;;6182009;23;20168;-90
2021/06/05 16:30:05;;;;;;;4.00;2.85;;;;;;;;;;6199753;23;20192;-91
2021/06/05 16:33:11;;;;;;;4.38;2.38;;;;;;;;;;6181818;23;20181;-92
2021/06/05 16:36:17;;;;;;;6.20;2.20;;;;;;;;;;6197801;23;20268;-91
2021/06/05 16:39:22;;;;;;;6.25;2.45;;;;;;;;;;6182202;23;20152;-89
2021/06/05 16:42:27;;;;;;;4.60;2.25;;;;;;;;;;6180688;23;20180;-90
2021/06/05 16:45:32;;;;;;;4.03;2.20;;;;;;;;;;6198658;23;20160;-90
2021/06/05 16:48:37;;;;;;;6.47;2.30;;;;;;;;;;6198655;23;20236;-90
2021/06/05 16:51:43;;;;;;;6.78;2.90;;;;;;;;;;6198667;23;20187;-88
2021/06/05 16:54:47;;;;;;;4.60;2.50;;;;;;;;;;6198639;23;20221;-90
2021/06/05 16:57:52;;;;;;;7.38;2.80;;;;;;;;;;6214099;23;20342;-89
2021/06/05 17:00:57;;;;;;;8.65;2.60;;;;;;;;;;6199827;23;20237;-91
2021/06/05 17:04:03;;;;;;;3.72;2.70;;;;;;;;;;6200959;23;20179;-91
2021/06/05 17:07:10;;;;;;;5.80;2.40;;;;;;;;;;6206237;23;20176;-89
2021/06/05 17:10:17;;;;;;;3.90;2.58;;;;;;;;;;6199543;23;20176;-90
2021/06/05 17:13:23;;;;;;;5.82;3.00;;;;;;;;;;6212185;23;20212;-89
2021/06/05 17:16:27;;;;;;;7.90;3.17;;;;;;;;;;6198404;23;20654;-89
2021/06/05 17:19:31;;;;;;;6.78;2.97;;;;;;;;;;6196129;23;20215;-91
2021/06/05 17:22:38;;;;;;;5.13;2.83;;;;;;;;;;6193889;23;20442;-91
2021/06/05 17:25:43;;;;;;;6.68;2.72;;;;;;;;;;6195039;23;20163;-90
2021/06/05 17:28:49;;;;;;;4.93;2.97;;;;;;;;;;6196425;23;20296;-89
2021/06/05 17:31:54;;;;;;;4.55;2.92;;;;;;;;;;6194011;23;20684;-92
2021/06/05 17:34:59;;;;;;;4.47;2.85;;;;;;;;;;6197113;23;20214;-91
2021/06/05 17:38:05;;;;;;;14.82;8.30;;;;;;;;;;6198589;23;20273;-92
2021/06/05 17:41:12;;;;;;;11.23;5.65;;;;;;;;;;6199186;23;20226;-90
2021/06/05 17:44:17;;;;;;;7.00;3.60;;;;;;;;;;6197789;23;20194;-91
2021/06/05 17:47:22;;;;;;;6.03;3.40;;;;;;;;;;6198594;23;20241;-90
2021/06/05 17:50:27;;;;;;;7.50;3.10;;;;;;;;;;6198050;23;20208;-91
2021/06/05 17:53:33;;;;;;;5.07;2.80;;;;;;;;;;6198389;23;20241;-92
2021/06/05 17:56:38;;;;;;;5.82;2.80;;;;;;;;;;6199507;23;20231;-89
2021/06/05 17:59:42;;;;;;;6.68;2.70;;;;;;;;;;6196675;23;20223;-90
2021/06/05 18:02:47;;;;;;;6.25;2.63;;;;;;;;;;6195547;23;20217;-91
2021/06/05 18:05:52;;;;;;;4.88;2.10;;;;;;;;;;6197977;23;20203;-89
2021/06/05 18:08:58;;;;;;;4.80;3.00;;;;;;;;;;6198967;23;20175;-91
2021/06/05 18:12:03;;;;;;;3.55;2.40;;;;;;;;;;6200471;23;20191;-91
2021/06/05 18:15:09;;;;;;;8.30;3.88;;;;;;;;;;6196891;23;20231;-91
2021/06/05 18:18:14;;;;;;;7.07;3.00;;;;;;;;;;6181301;23;20167;-90
2021/06/05 18:21:20;;;;;;;4.32;2.60;;;;;;;;;;6180644;23;20183;-89
2021/06/05 18:24:28;;;;;;;6.93;2.33;;;;;;;;;;6198735;23;20172;-92
2021/06/05 18:27:33;;;;;;;3.20;2.05;;;;;;;;;;6198739;23;20171;-90
2021/06/05 18:30:38;;;;;;;4.82;2.30;;;;;;;;;;6178998;23;20172;-91